Time;durP1;ratioP1;P1;durP2;ratioP2;P2;SDS_P1;SDS_P2;PMS_P1;PMS_P2;Temp;Humidity;BMP_temperature;BMP_pressure;BME280_temperature;BME280_humidity;BME280_pressure;Samples;Min_cycle;Max_cycle;Signal;HPM_P1;HPM_P2
2021/09/13 00:00:54;;;;;;;;;7.00;6.25;;;;;18.08;57.69;101411.69;4917049;28;46309;-66
2021/09/13 00:03:19;;;;;;;;;7.00;6.25;;;;;18.07;57.52;101409.19;4932873;28;45408;-66
2021/09/13 00:05:44;;;;;;;;;7.00;6.50;;;;;18.05;57.72;101420.06;4926359;28;45359;-66
2021/09/13 00:08:10;;;;;;;;;6.75;6.75;;;;;18.02;57.71;101420.44;4925008;28;45538;-66
2021/09/13 00:10:35;;;;;;;;;5.25;5.00;;;;;18.02;57.80;101417.75;4913959;28;45878;-66
2021/09/13 00:13:00;;;;;;;;;6.00;6.00;;;;;18.01;57.65;101426.81;4910127;28;45688;-66
2021/09/13 00:15:26;;;;;;;;;7.50;6.75;;;;;17.99;57.78;101428.81;4921830;28;45653;-66
2021/09/13 00:17:51;;;;;;;;;5.75;5.75;;;;;17.97;57.83;101429.00;4926587;28;45316;-66
2021/09/13 00:20:17;;;;;;;;;7.50;6.00;;;;;17.96;57.77;101423.84;4911883;28;47152;-66
2021/09/13 00:22:42;;;;;;;;;6.75;5.25;;;;;17.94;58.49;101429.38;4923671;28;45561;-66
2021/09/13 00:25:08;;;;;;;;;5.00;5.00;;;;;17.91;57.80;101421.72;4915447;28;45939;-66
2021/09/13 00:27:33;;;;;;;;;6.50;5.75;;;;;17.90;58.51;101417.34;4911184;28;45826;-66
2021/09/13 00:29:59;;;;;;;;;6.00;4.50;;;;;17.90;58.50;101411.19;4909473;28;46489;-66
2021/09/13 00:32:24;;;;;;;;;7.75;6.75;;;;;17.89;58.06;101412.22;4909242;28;45588;-66
2021/09/13 00:34:49;;;;;;;;;6.75;5.75;;;;;17.89;58.09;101418.38;4913584;28;45532;-66
2021/09/13 00:37:15;;;;;;;;;7.25;6.50;;;;;17.88;58.10;101405.19;4911383;28;45597;-66
2021/09/13 00:39:40;;;;;;;;;8.00;6.00;;;;;17.87;58.28;101401.69;4914126;28;46295;-66
2021/09/13 00:42:06;;;;;;;;;5.00;5.00;;;;;17.87;58.27;101398.19;4909548;28;45451;-66
2021/09/13 00:44:31;;;;;;;;;5.75;5.25;;;;;17.85;58.23;101403.69;4908438;28;45606;-66
2021/09/13 00:46:59;;;;;;;;;8.75;6.25;;;;;17.83;58.19;101400.41;4913599;28;45692;-66
2021/09/13 00:49:24;;;;;;;;;5.00;5.00;;;;;17.82;58.57;101391.53;4910081;28;46336;-66
2021/09/13 00:51:50;;;;;;;;;6.50;6.00;;;;;17.82;58.54;101394.19;4911320;28;45541;-66
2021/09/13 00:54:16;;;;;;;;;5.50;5.50;;;;;17.83;58.42;101395.06;4911834;28;45861;-66
2021/09/13 00:56:45;;;;;;;;;9.00;7.75;;;;;17.81;58.90;101392.56;4909939;28;45462;-66
2021/09/13 00:59:11;;;;;;;;;12.00;8.25;;;;;17.81;58.89;101386.38;4928381;28;47173;-66
2021/09/13 01:01:37;;;;;;;;;6.50;6.00;;;;;17.81;58.92;101389.06;4924196;28;45539;-67
2021/09/13 01:04:03;;;;;;;;;7.75;7.00;;;;;17.80;58.96;101376.69;4922045;28;45448;-66
2021/09/13 01:06:28;;;;;;;;;8.00;8.00;;;;;17.79;58.91;101381.16;4915231;28;45620;-66
2021/09/13 01:08:54;;;;;;;;;9.00;7.00;;;;;17.78;58.97;101390.22;4925258;28;47127;-66
2021/09/13 01:11:19;;;;;;;;;7.00;6.50;;;;;17.76;58.93;101381.53;4912795;28;45485;-66
2021/09/13 01:13:46;;;;;;;;;10.00;9.50;;;;;17.76;59.37;101394.09;4926376;28;45620;-66
2021/09/13 01:16:12;;;;;;;;;8.00;7.00;;;;;17.74;59.26;101394.25;4925656;28;45486;-66
2021/09/13 01:18:38;;;;;;;;;6.75;6.75;;;;;17.73;59.54;101387.25;4922890;28;46256;-66
2021/09/13 01:21:05;;;;;;;;;8.00;8.00;;;;;17.72;59.12;101395.44;4928132;28;45454;-66
2021/09/13 01:23:35;;;;;;;;;9.50;7.25;;;;;17.72;59.40;101398.13;4912914;28;45503;-66
2021/09/13 01:26:02;;;;;;;;;7.00;6.00;;;;;17.72;59.53;101393.59;4922277;28;45565;-67
2021/09/13 01:28:28;;;;;;;;;7.50;7.50;;;;;17.73;59.74;101389.94;4922557;28;45991;-66
2021/09/13 01:30:54;;;;;;;;;7.50;7.00;;;;;17.76;59.90;101392.22;4919604;28;45564;-66
2021/09/13 01:33:21;;;;;;;;;8.75;7.00;;;;;17.76;59.93;101391.41;4913812;28;48728;-66
2021/09/13 01:35:46;;;;;;;;;8.75;8.00;;;;;17.74;60.08;101383.56;4925157;28;45496;-66
2021/09/13 01:38:13;;;;;;;;;6.00;6.00;;;;;17.74;60.19;101378.22;4915755;28;45958;-65
2021/09/13 01:40:38;;;;;;;;;10.25;9.00;;;;;17.74;59.88;101372.03;4923674;28;45585;-66
2021/09/13 01:43:04;;;;;;;;;7.25;6.25;;;;;17.73;59.76;101376.56;4923682;28;45439;-66
2021/09/13 01:45:30;;;;;;;;;7.00;7.00;;;;;17.73;60.65;101375.72;4925246;28;45576;-66
2021/09/13 01:47:55;;;;;;;;;5.25;5.00;;;;;17.72;60.09;101372.22;4910649;28;45582;-66
2021/09/13 01:50:22;;;;;;;;;6.50;6.50;;;;;17.71;60.87;101378.56;4912416;28;45523;-66
2021/09/13 01:52:48;;;;;;;;;7.00;7.00;;;;;17.70;60.41;101379.56;4932326;28;45724;-66
2021/09/13 01:55:13;;;;;;;;;9.25;8.25;;;;;17.70;60.57;101381.41;4920252;28;45478;-66
2021/09/13 01:57:39;;;;;;;;;9.00;7.50;;;;;17.70;60.17;101379.56;4923524;28;46022;-66
2021/09/13 02:00:06;;;;;;;;;7.00;6.50;;;;;17.68;60.40;101381.63;4910019;28;45814;-66
2021/09/13 02:02:32;;;;;;;;;8.25;7.00;;;;;17.66;60.83;101380.97;4935552;28;45442;-66
2021/09/13 02:04:57;;;;;;;;;9.50;8.00;;;;;17.63;60.71;101375.97;4925248;28;45684;-68
2021/09/13 02:07:23;;;;;;;;;7.00;7.00;;;;;17.59;61.42;101380.84;4921325;28;46192;-66
2021/09/13 02:09:52;;;;;;;;;8.00;8.00;;;;;17.55;60.99;101386.72;4919846;28;45654;-67
2021/09/13 02:12:18;;;;;;;;;7.00;7.00;;;;;17.51;60.79;101383.59;4913186;28;45380;-66
2021/09/13 02:14:43;;;;;;;;;8.00;8.00;;;;;17.51;60.73;101383.59;4916357;28;45680;-66
2021/09/13 02:17:09;;;;;;;;;9.50;8.50;;;;;17.49;60.63;101384.78;4931371;28;47133;-67
2021/09/13 02:19:34;;;;;;;;;8.25;7.50;;;;;17.47;60.78;101382.28;4915491;28;45743;-67
2021/09/13 02:21:59;;;;;;;;;6.50;6.50;;;;;17.42;60.76;101376.63;4918733;28;45426;-67
2021/09/13 02:24:25;;;;;;;;;9.25;8.75;;;;;17.39;60.77;101380.50;4924331;28;45466;-67
2021/09/13 02:26:50;;;;;;;;;7.75;6.75;;;;;17.37;61.10;101384.38;4921516;28;46099;-67
2021/09/13 02:29:15;;;;;;;;;9.50;8.00;;;;;17.33;61.07;101380.38;4913613;28;45605;-66
2021/09/13 02:31:40;;;;;;;;;10.00;7.00;;;;;17.31;61.30;101388.59;4914547;28;45589;-67
2021/09/13 02:34:06;;;;;;;;;7.75;7.75;;;;;17.30;61.06;101380.72;4919081;28;45659;-66
2021/09/13 02:36:31;;;;;;;;;9.25;8.00;;;;;17.27;61.20;101381.91;4922860;28;50938;-66
2021/09/13 02:38:56;;;;;;;;;7.75;7.75;;;;;17.26;61.42;101379.41;4924213;28;45445;-66
2021/09/13 02:41:22;;;;;;;;;8.50;8.50;;;;;17.23;61.34;101375.25;4911650;28;45422;-66
2021/09/13 02:43:47;;;;;;;;;7.00;7.00;;;;;17.23;61.20;101383.28;4912461;28;45582;-66
2021/09/13 02:46:14;;;;;;;;;10.50;9.00;;;;;17.24;61.45;101376.13;4914953;28;48198;-67
2021/09/13 02:48:40;;;;;;;;;9.00;7.50;;;;;17.23;61.02;101380.59;4915380;28;45652;-66
2021/09/13 02:51:05;;;;;;;;;7.75;7.75;;;;;17.24;61.09;101378.78;4925427;28;45450;-67
2021/09/13 02:53:34;;;;;;;;;8.75;8.25;;;;;17.27;61.42;101381.91;4923626;28;45442;-66
2021/09/13 02:55:59;;;;;;;;;7.50;7.25;;;;;17.28;61.21;101374.72;4914842;28;47095;-67
2021/09/13 02:58:24;;;;;;;;;8.00;8.00;;;;;17.30;61.33;101378.06;4921114;28;46571;-66
2021/09/13 03:00:50;;;;;;;;;9.25;8.00;;;;;17.32;61.15;101378.72;4920944;28;45557;-67
2021/09/13 03:03:15;;;;;;;;;8.00;8.00;;;;;17.32;61.41;101379.56;4935079;28;46216;-67
2021/09/13 03:05:40;;;;;;;;;8.00;8.00;;;;;17.32;61.49;101371.53;4911856;28;56724;-67
2021/09/13 03:08:06;;;;;;;;;9.00;8.00;;;;;17.31;61.27;101367.22;4924098;28;45902;-67
2021/09/13 03:10:31;;;;;;;;;8.75;7.75;;;;;17.30;61.17;101365.53;4919036;28;45503;-66
2021/09/13 03:12:57;;;;;;;;;10.00;9.00;;;;;17.27;61.30;101365.06;4918127;28;45803;-66
2021/09/13 03:15:22;;;;;;;;;9.25;8.00;;;;;17.24;61.31;101360.91;4921767;28;46108;-66
2021/09/13 03:17:48;;;;;;;;;8.25;7.75;;;;;17.20;61.49;101355.09;4923391;28;56568;-66
2021/09/13 03:20:13;;;;;;;;;6.75;6.75;;;;;17.17;61.38;101351.94;4909381;28;45624;-66
2021/09/13 03:22:39;;;;;;;;;7.25;6.50;;;;;17.11;61.33;101353.50;4912630;28;45596;-66
2021/09/13 03:25:04;;;;;;;;;9.50;8.00;;;;;17.07;60.91;101354.84;4906463;28;46029;-67
2021/09/13 03:27:30;;;;;;;;;8.50;7.75;;;;;17.02;61.63;101359.88;4912357;28;45544;-67
2021/09/13 03:29:56;;;;;;;;;10.50;8.00;;;;;16.97;62.09;101356.91;4912140;28;45612;-66
2021/09/13 03:32:21;;;;;;;;;8.25;7.75;;;;;16.93;62.18;101355.59;4912407;28;45395;-67
2021/09/13 03:34:46;;;;;;;;;8.50;8.50;;;;;16.88;62.09;101356.13;4911351;28;48226;-66
2021/09/13 03:37:12;;;;;;;;;7.00;7.00;;;;;16.84;62.64;101354.84;4915975;28;56142;-67
2021/09/13 03:39:37;;;;;;;;;8.25;7.00;;;;;16.79;62.41;101359.88;4916165;28;45518;-67
2021/09/13 03:42:04;;;;;;;;;8.25;6.50;;;;;16.73;62.96;101348.00;4911644;28;45434;-67
2021/09/13 03:44:29;;;;;;;;;9.00;8.00;;;;;16.69;62.91;101354.72;4923515;28;46337;-66
2021/09/13 03:46:55;;;;;;;;;9.50;8.00;;;;;16.65;62.72;101355.22;4913901;28;45587;-66
2021/09/13 03:49:21;;;;;;;;;10.00;8.50;;;;;16.61;63.03;101351.22;4912017;28;45596;-67
2021/09/13 03:51:46;;;;;;;;;7.25;7.00;;;;;16.56;63.71;101349.91;4915083;28;45881;-67
2021/09/13 03:54:12;;;;;;;;;9.00;8.00;;;;;16.52;63.30;101355.78;4911020;28;46251;-67
2021/09/13 03:56:37;;;;;;;;;10.00;8.00;;;;;16.49;63.74;101356.97;4907094;28;45485;-67
2021/09/13 03:59:02;;;;;;;;;7.75;7.75;;;;;16.44;63.78;101356.63;4914416;28;45419;-67
2021/09/13 04:01:28;;;;;;;;;8.25;7.50;;;;;16.40;64.05;101358.00;4925273;28;45539;-67
2021/09/13 04:03:57;;;;;;;;;9.00;8.75;;;;;16.38;64.29;101353.84;4928704;28;47052;-67
2021/09/13 04:06:47;;;;;;;;;8.00;8.00;;;;;16.34;64.11;101350.66;4925427;28;45420;-67
2021/09/13 04:14:02;;;;;;;;;9.75;8.25;;;;;16.28;65.13;101352.19;4919935;28;45629;-69
2021/09/13 04:16:27;;;;;;;;;8.50;7.75;;;;;16.27;64.49;101352.34;4926251;28;45483;-67
2021/09/13 04:18:52;;;;;;;;;9.00;7.50;;;;;16.25;64.27;101347.22;4917869;28;45493;-67
2021/09/13 04:21:18;;;;;;;;;7.50;7.25;;;;;16.23;64.52;101340.38;4911843;28;45568;-66
2021/09/13 04:23:43;;;;;;;;;9.75;7.50;;;;;16.23;63.91;101345.72;4923659;28;45669;-65
2021/09/13 04:26:08;;;;;;;;;7.25;7.25;;;;;16.22;64.26;101349.38;4920162;28;45537;-70
2021/09/13 04:28:34;;;;;;;;;6.00;6.00;;;;;16.19;64.46;101339.06;4918185;28;45902;-66
2021/09/13 04:30:59;;;;;;;;;8.00;8.00;;;;;16.16;64.31;101344.75;4918332;28;45922;-66
2021/09/13 04:33:24;;;;;;;;;9.25;7.50;;;;;16.13;64.70;101338.75;4922899;28;46349;-66
2021/09/13 04:35:50;;;;;;;;;9.50;8.00;;;;;16.11;64.59;101340.75;4921180;28;45757;-67
2021/09/13 04:38:16;;;;;;;;;13.50;10.25;;;;;16.11;65.14;101339.91;4920826;28;45801;-67
2021/09/13 04:40:42;;;;;;;;;11.25;8.25;;;;;16.09;65.31;101334.75;4917327;28;45678;-67
2021/09/13 04:43:07;;;;;;;;;12.50;9.50;;;;;16.08;65.25;101333.09;4920351;28;46308;-67
2021/09/13 04:45:32;;;;;;;;;8.00;7.00;;;;;16.08;64.90;101329.59;4917173;28;45626;-69
2021/09/13 04:47:58;;;;;;;;;10.75;10.50;;;;;16.07;65.10;101336.78;4923653;28;46003;-69
2021/09/13 04:50:23;;;;;;;;;10.50;9.00;;;;;16.06;65.20;101337.75;4923363;28;45529;-69
2021/09/13 04:52:48;;;;;;;;;9.25;7.75;;;;;16.04;64.87;101339.75;4918467;28;46498;-69
2021/09/13 04:55:14;;;;;;;;;10.00;9.75;;;;;16.03;64.92;101340.78;4918682;28;45622;-69
2021/09/13 04:57:39;;;;;;;;;8.00;8.00;;;;;16.00;64.96;101341.13;4918921;28;45500;-69
2021/09/13 05:00:05;;;;;;;;;10.75;9.00;;;;;15.98;65.54;101345.78;4934877;28;45686;-69
2021/09/13 05:02:30;;;;;;;;;10.25;8.25;;;;;15.98;65.28;101336.97;4916415;28;46900;-70
2021/09/13 05:04:56;;;;;;;;;12.25;10.00;;;;;15.96;65.43;101333.63;4922128;28;45539;-70
2021/09/13 05:07:21;;;;;;;;;11.00;9.25;;;;;15.97;65.46;101340.59;4912217;28;54327;-70
2021/09/13 05:09:47;;;;;;;;;9.75;9.00;;;;;15.96;65.51;101337.13;4913485;28;45827;-70
2021/09/13 05:12:12;;;;;;;;;9.00;9.00;;;;;15.98;65.90;101336.97;4918280;28;46951;-70
2021/09/13 05:14:38;;;;;;;;;9.25;9.25;;;;;15.98;65.89;101337.78;4916771;28;46036;-71
2021/09/13 05:17:03;;;;;;;;;13.00;11.00;;;;;15.99;65.70;101333.28;4924715;28;45552;-70
2021/09/13 05:19:29;;;;;;;;;10.00;9.00;;;;;16.00;65.61;101335.78;4915299;28;45831;-70
2021/09/13 05:21:54;;;;;;;;;10.25;9.25;;;;;16.00;65.50;101325.13;4919949;28;47086;-68
2021/09/13 05:24:19;;;;;;;;;9.75;8.75;;;;;16.00;65.63;101327.78;4980400;28;45842;-67
2021/09/13 05:26:44;;;;;;;;;13.75;10.25;;;;;16.01;65.69;101332.09;4927859;28;45550;-69
2021/09/13 05:29:10;;;;;;;;;11.00;11.00;;;;;16.02;65.58;101333.78;4934434;28;45689;-70
2021/09/13 05:31:35;;;;;;;;;13.75;11.00;;;;;16.02;65.77;101331.13;4932892;28;47023;-69
2021/09/13 05:34:01;;;;;;;;;14.25;10.00;;;;;16.03;65.55;101330.09;4933137;28;45446;-70
2021/09/13 05:36:26;;;;;;;;;11.00;10.25;;;;;16.05;65.66;101330.78;4932149;28;45714;-68
2021/09/13 05:38:51;;;;;;;;;11.00;11.00;;;;;16.07;65.51;101334.09;4925592;28;45866;-67
2021/09/13 05:41:17;;;;;;;;;13.00;10.00;;;;;16.10;65.59;101332.94;4931422;28;46455;-72
2021/09/13 05:43:42;;;;;;;;;11.75;10.25;;;;;16.12;66.30;101333.56;4933685;28;45545;-73
2021/09/13 05:46:08;;;;;;;;;8.75;8.50;;;;;16.10;65.37;101325.75;4929924;28;58089;-74
2021/09/13 05:48:33;;;;;;;;;14.25;10.00;;;;;16.13;65.31;101328.06;4940358;28;45600;-75
2021/09/13 05:50:59;;;;;;;;;13.00;11.25;;;;;16.19;65.62;101331.06;4931686;28;45897;-71
2021/09/13 05:53:24;;;;;;;;;13.50;10.50;;;;;16.23;65.43;101335.88;4935997;28;45666;-68
2021/09/13 05:55:49;;;;;;;;;11.50;9.75;;;;;16.28;65.73;101327.38;4934947;28;45612;-70
2021/09/13 05:58:15;;;;;;;;;10.75;10.00;;;;;16.28;65.27;101332.69;4934561;28;45416;-68
2021/09/13 06:00:40;;;;;;;;;9.25;9.25;;;;;16.33;65.21;101335.69;4934215;28;46736;-72
2021/09/13 06:03:08;;;;;;;;;12.50;11.00;;;;;16.36;65.10;101326.50;4931663;28;45576;-72
2021/09/13 06:05:33;;;;;;;;;11.75;9.50;;;;;16.39;65.33;101331.47;4931123;28;45504;-72
2021/09/13 06:07:58;;;;;;;;;12.75;10.75;;;;;16.44;66.16;101332.63;4935247;28;45531;-71
2021/09/13 06:10:24;;;;;;;;;11.00;10.25;;;;;16.48;65.08;101331.28;4923582;28;46059;-72
2021/09/13 06:12:49;;;;;;;;;12.25;10.75;;;;;16.53;65.08;101328.91;4934191;28;46624;-71
2021/09/13 06:15:14;;;;;;;;;15.00;11.00;;;;;16.57;64.81;101337.41;4928998;28;45438;-71
2021/09/13 06:17:40;;;;;;;;;13.00;11.00;;;;;16.62;64.45;101326.22;4932157;28;45456;-71
2021/09/13 06:20:06;;;;;;;;;9.00;9.00;;;;;16.67;64.54;101337.22;4933970;28;45907;-71
2021/09/13 06:22:31;;;;;;;;;11.50;11.00;;;;;16.74;64.16;101341.66;4932476;28;45442;-71
2021/09/13 06:24:58;;;;;;;;;11.00;11.00;;;;;16.82;64.17;101334.66;4932097;28;53715;-71
2021/09/13 06:27:23;;;;;;;;;14.25;14.25;;;;;16.87;64.06;101338.47;4931883;28;45714;-71
2021/09/13 06:29:49;;;;;;;;;14.25;12.00;;;;;16.92;64.05;101338.75;4932618;28;47031;-71
2021/09/13 06:32:14;;;;;;;;;12.00;11.75;;;;;16.94;64.03;101339.41;4935869;28;45491;-71
2021/09/13 06:34:40;;;;;;;;;15.25;10.25;;;;;17.05;64.05;101350.69;4927926;28;51787;-71
2021/09/13 06:37:05;;;;;;;;;10.50;10.00;;;;;17.16;63.44;101345.78;4928119;28;45892;-71
2021/09/13 06:39:31;;;;;;;;;9.75;9.25;;;;;17.31;63.31;101334.31;4912163;28;47139;-71
2021/09/13 06:41:56;;;;;;;;;12.00;11.25;;;;;17.52;63.40;101341.66;4929654;28;47079;-75
2021/09/13 06:44:23;;;;;;;;;13.25;13.00;;;;;17.62;62.72;101334.22;4935717;28;45754;-71
2021/09/13 06:47:01;;;;;;;;;14.25;12.50;;;;;18.02;62.59;101341.03;4932898;28;45831;-70
2021/09/13 06:49:26;;;;;;;;;13.00;12.75;;;;;18.48;61.14;101340.00;4933134;28;46146;-70
2021/09/13 06:51:52;;;;;;;;;16.50;12.50;;;;;18.69;60.06;101340.06;4940516;28;45529;-71
2021/09/13 06:54:17;;;;;;;;;12.50;12.25;;;;;18.82;59.77;101344.78;4932639;28;45601;-71
2021/09/13 06:56:42;;;;;;;;;14.25;11.00;;;;;19.00;59.20;101343.53;4925389;28;45922;-71
2021/09/13 06:59:08;;;;;;;;;18.00;14.25;;;;;19.13;59.09;101347.16;4936948;28;46167;-70
2021/09/13 07:01:33;;;;;;;;;15.50;14.00;;;;;19.28;58.56;101354.31;4934276;28;45555;-71
2021/09/13 07:04:00;;;;;;;;;13.00;10.00;;;;;19.46;58.10;101345.78;4934713;28;45780;-70
2021/09/13 07:06:27;;;;;;;;;12.50;11.50;;;;;19.64;57.79;101353.38;4932264;28;45691;-71
2021/09/13 07:08:53;;;;;;;;;12.50;11.25;;;;;19.78;57.51;101355.16;4930556;28;47277;-71
2021/09/13 07:11:18;;;;;;;;;14.75;12.25;;;;;19.92;56.67;101351.56;4937931;28;45486;-71
2021/09/13 07:13:43;;;;;;;;;12.50;11.25;;;;;20.05;56.69;101349.97;4935998;28;45634;-72
2021/09/13 07:16:09;;;;;;;;;15.00;12.25;;;;;20.23;56.11;101347.63;4931862;28;45462;-71
2021/09/13 07:18:34;;;;;;;;;13.50;11.50;;;;;20.31;56.00;101344.78;4931983;28;47139;-71
2021/09/13 07:20:59;;;;;;;;;13.25;11.50;;;;;20.62;55.93;101351.53;4929342;28;45886;-71
2021/09/13 07:23:25;;;;;;;;;14.25;10.75;;;;;21.16;54.71;101341.75;4936368;28;45932;-71
2021/09/13 07:25:50;;;;;;;;;17.00;10.50;;;;;21.64;53.85;101344.31;4933692;28;45582;-71
2021/09/13 07:28:15;;;;;;;;;14.25;13.75;;;;;21.96;51.79;101342.63;4931718;28;45560;-72
2021/09/13 07:30:41;;;;;;;;;14.25;10.50;;;;;22.02;51.93;101331.00;4931437;28;45703;-66
2021/09/13 07:33:06;;;;;;;;;11.75;11.00;;;;;22.25;50.80;101340.50;4931810;28;45636;-67
2021/09/13 07:35:32;;;;;;;;;10.75;9.50;;;;;23.23;48.99;101342.91;4933518;28;45599;-66
2021/09/13 07:37:57;;;;;;;;;12.75;9.75;;;;;24.46;47.55;101335.97;4934395;28;45580;-66
2021/09/13 07:40:22;;;;;;;;;9.25;9.00;;;;;25.31;46.47;101326.88;4932616;28;45765;-66
2021/09/13 07:42:48;;;;;;;;;14.75;12.00;;;;;26.64;41.60;101334.44;4931081;28;45881;-66
2021/09/13 07:45:13;;;;;;;;;10.00;10.00;;;;;28.31;39.50;101329.19;4932342;28;45761;-66
2021/09/13 07:47:39;;;;;;;;;10.25;10.00;;;;;30.09;38.83;101325.56;4931332;28;45630;-66
2021/09/13 07:50:06;;;;;;;;;9.25;8.75;;;;;31.33;37.76;101327.47;4934827;28;45640;-67
2021/09/13 07:52:31;;;;;;;;;9.25;8.25;;;;;32.37;36.02;101326.94;4932265;28;45731;-66
2021/09/13 07:54:56;;;;;;;;;12.00;10.00;;;;;32.79;33.45;101331.94;4933857;28;45403;-67
2021/09/13 07:57:22;;;;;;;;;8.50;8.50;;;;;33.65;33.71;101331.50;4931524;28;46238;-66
2021/09/13 07:59:47;;;;;;;;;11.25;8.00;;;;;34.47;30.69;101326.69;4930848;28;45407;-66
2021/09/13 08:02:13;;;;;;;;;8.75;8.75;;;;;35.48;31.76;101324.53;4935936;28;45481;-66
2021/09/13 08:04:40;;;;;;;;;9.50;7.75;;;;;36.78;29.71;101327.91;4930447;28;45785;-67
2021/09/13 08:07:06;;;;;;;;;9.75;8.50;;;;;37.64;25.47;101326.84;4932731;28;46433;-67
2021/09/13 08:09:31;;;;;;;;;9.00;8.00;;;;;37.43;23.93;101332.06;4934085;28;45655;-66
2021/09/13 08:11:57;;;;;;;;;11.00;8.75;;;;;36.88;24.25;101330.41;4926332;28;45614;-67
2021/09/13 08:14:22;;;;;;;;;9.00;8.00;;;;;35.78;25.28;101323.16;4927781;28;45920;-71
2021/09/13 08:16:48;;;;;;;;;8.00;8.00;;;;;35.35;25.06;101330.81;4933504;28;47842;-70
2021/09/13 08:19:13;;;;;;;;;8.00;7.00;;;;;35.28;27.45;101323.78;4931090;28;45491;-70
2021/09/13 08:21:41;;;;;;;;;7.75;7.75;;;;;35.13;27.92;101318.56;4932667;28;45406;-70
2021/09/13 08:24:07;;;;;;;;;6.75;6.75;;;;;35.80;27.49;101317.34;4930543;28;45572;-72
2021/09/13 08:26:33;;;;;;;;;5.00;5.00;;;;;36.55;27.31;101313.25;4935143;28;46999;-70
2021/09/13 08:28:59;;;;;;;;;7.00;7.00;;;;;36.58;24.82;101319.00;4931394;28;45473;-70
2021/09/13 08:31:24;;;;;;;;;5.00;5.00;;;;;36.77;26.31;101318.00;4929633;28;45666;-70
2021/09/13 08:33:49;;;;;;;;;6.50;4.50;;;;;37.28;26.10;101324.19;4931137;28;45611;-70
2021/09/13 08:36:16;;;;;;;;;7.00;5.00;;;;;37.49;25.39;101318.94;4923857;28;45790;-70
2021/09/13 08:38:41;;;;;;;;;5.25;4.00;;;;;37.90;24.99;101317.81;4930502;28;45835;-70
2021/09/13 08:41:07;;;;;;;;;7.00;6.50;;;;;37.84;24.17;101317.97;4934958;28;45528;-70
2021/09/13 08:43:32;;;;;;;;;7.00;5.75;;;;;37.78;24.91;101313.72;4931174;28;45552;-70
2021/09/13 08:46:02;;;;;;;;;4.75;4.75;;;;;37.60;25.24;101304.59;4931057;28;46114;-70
2021/09/13 08:53:31;;;;;;;;;5.25;5.00;;;;;38.26;24.67;101304.63;4934599;28;45410;-69
2021/09/13 08:55:57;;;;;;;;;6.00;5.00;;;;;39.23;24.36;101305.38;4933925;28;46426;-70
2021/09/13 08:58:23;;;;;;;;;6.00;4.75;;;;;39.98;23.57;101306.50;4930836;28;45577;-70
2021/09/13 09:00:50;;;;;;;;;4.00;4.00;;;;;40.59;21.67;101313.56;4929930;28;45554;-70
2021/09/13 09:03:17;;;;;;;;;7.50;5.75;;;;;40.39;22.91;101315.22;4931787;28;45531;-70
2021/09/13 09:05:48;;;;;;;;;5.00;4.25;;;;;40.61;22.48;101325.91;4931440;28;45672;-67
2021/09/13 09:08:28;;;;;;;;;5.50;5.00;;;;;40.59;21.69;101339.28;4932976;28;45938;-69
2021/09/13 09:10:56;;;;;;;;;4.00;3.00;;;;;40.86;22.69;101339.09;4925061;28;45694;-73
2021/09/13 09:13:23;;;;;;;;;5.50;5.00;;;;;41.36;22.18;101338.06;4921593;28;45529;-70
2021/09/13 09:15:55;;;;;;;;;5.00;4.00;;;;;42.17;21.84;101335.56;4931928;28;47381;-69
2021/09/13 09:18:23;;;;;;;;;7.00;5.00;;;;;42.42;21.49;101336.31;4928192;28;46009;-69
2021/09/13 09:20:48;;;;;;;;;6.50;4.50;;;;;42.14;20.46;101334.31;4935846;28;45409;-69
2021/09/13 09:23:14;;;;;;;;;6.00;4.00;;;;;42.66;21.01;101333.47;4940026;28;45538;-70
2021/09/13 09:25:40;;;;;;;;;6.25;5.50;;;;;43.44;20.74;101336.72;4930226;28;47264;-75
2021/09/13 09:28:20;;;;;;;;;7.25;5.25;;;;;43.49;19.35;101328.13;4936087;28;45555;-76
2021/09/13 09:30:49;;;;;;;;;4.25;4.00;;;;;43.46;19.21;101322.47;4935206;28;45497;-75
2021/09/13 09:33:21;;;;;;;;;5.00;4.00;;;;;43.57;19.94;101320.75;4933585;28;45508;-68
2021/09/13 09:35:46;;;;;;;;;7.00;4.50;;;;;43.32;20.29;101323.72;4928677;28;47177;-71
2021/09/13 09:38:38;;;;;;;;;6.00;3.75;;;;;43.41;20.00;101320.78;4937667;28;45544;-72
2021/09/13 09:41:08;;;;;;;;;4.50;4.00;;;;;43.90;18.94;101317.59;4938358;28;45534;-70
2021/09/13 09:44:09;;;;;;;;;4.25;4.00;;;;;43.42;19.05;101327.13;4933151;28;45547;-76
2021/09/13 09:46:41;;;;;;;;;7.25;4.75;;;;;43.22;18.90;101320.69;4932320;28;46598;-76
2021/09/13 09:49:12;;;;;;;;;2.25;2.25;;;;;42.59;19.22;101318.56;4931594;28;45951;-75
2021/09/13 09:51:41;;;;;;;;;6.25;4.50;;;;;41.62;20.13;101305.31;4929247;28;45486;-71
2021/09/13 09:54:12;;;;;;;;;5.50;4.00;;;;;41.14;20.98;101315.16;4932116;28;45646;-78
2021/09/13 09:56:39;;;;;;;;;6.00;4.25;;;;;40.66;20.62;101324.09;4924331;28;46039;-70
2021/09/13 09:59:06;;;;;;;;;5.25;5.25;;;;;39.98;21.24;101314.81;4932069;28;45662;-74
2021/09/13 10:01:36;;;;;;;;;5.00;4.00;;;;;39.31;21.46;101310.03;4920538;28;46072;-68
2021/09/13 10:04:31;;;;;;;;;6.00;5.00;;;;;38.44;23.25;101304.63;4927464;28;45557;-68
2021/09/13 10:06:59;;;;;;;;;4.00;3.75;;;;;38.16;23.73;101293.91;4944019;28;45957;-69
2021/09/13 10:09:26;;;;;;;;;5.50;4.00;;;;;37.73;23.72;101286.31;4933288;28;45884;-72
2021/09/13 10:11:54;;;;;;;;;3.00;3.00;;;;;37.32;22.92;101281.94;4929823;28;45934;-68
2021/09/13 10:14:23;;;;;;;;;5.50;3.75;;;;;37.13;24.42;101273.06;4934658;28;45534;-74
2021/09/13 10:16:50;;;;;;;;;4.00;4.00;;;;;37.30;25.10;101264.91;4929461;28;46444;-72
2021/09/13 10:19:16;;;;;;;;;4.50;3.00;;;;;37.66;24.15;101252.88;4924660;28;45552;-72
2021/09/13 10:21:42;;;;;;;;;5.75;5.00;;;;;37.36;22.25;101255.34;4923002;28;45540;-70
2021/09/13 10:24:13;;;;;;;;;3.00;3.00;;;;;36.45;24.23;101251.06;4925010;28;45697;-70
2021/09/13 10:26:41;;;;;;;;;4.00;3.25;;;;;36.27;25.02;101258.31;4926765;28;47147;-70
2021/09/13 10:29:07;;;;;;;;;2.50;2.00;;;;;36.31;24.46;101259.34;4937406;28;45574;-71
2021/09/13 10:31:41;;;;;;;;;3.00;3.00;;;;;36.36;25.02;101250.97;4932529;28;59064;-73
2021/09/13 10:34:39;;;;;;;;;3.00;3.00;;;;;36.62;24.99;101244.88;4929073;28;45576;-72
2021/09/13 10:37:08;;;;;;;;;3.50;3.50;;;;;36.97;24.93;101248.66;4936935;28;46271;-73
2021/09/13 10:39:54;;;;;;;;;6.25;4.25;;;;;37.17;24.33;101246.53;4928073;28;51395;-72
2021/09/13 10:42:38;;;;;;;;;5.50;4.25;;;;;37.26;23.55;101246.56;4928882;28;45480;-71
2021/09/13 10:45:13;;;;;;;;;3.00;3.00;;;;;37.07;23.83;101244.03;4930255;28;46363;-71
2021/09/13 10:47:41;;;;;;;;;4.50;3.00;;;;;36.86;24.07;101239.03;4926708;28;47154;-69
2021/09/13 10:50:23;;;;;;;;;3.25;3.25;;;;;36.74;24.57;101230.53;4933416;28;45598;-69
2021/09/13 10:52:54;;;;;;;;;3.25;3.25;;;;;36.67;24.59;101227.41;4931201;28;45876;-69
2021/09/13 10:55:24;;;;;;;;;3.75;3.75;;;;;36.64;24.12;101230.81;4928485;28;45668;-70
2021/09/13 10:57:55;;;;;;;;;4.00;4.00;;;;;36.34;24.88;101233.16;4926926;28;47189;-69
2021/09/13 11:00:39;;;;;;;;;3.25;3.25;;;;;36.45;25.54;101229.03;4932850;28;45523;-76
2021/09/13 11:03:22;;;;;;;;;4.00;4.00;;;;;36.68;24.17;101224.34;4932221;28;45573;-67
2021/09/13 11:06:03;;;;;;;;;5.00;4.75;;;;;36.24;24.65;101227.88;4928556;28;54568;-70
2021/09/13 11:08:29;;;;;;;;;4.00;4.00;;;;;36.23;25.90;101223.50;4931420;28;46696;-69
2021/09/13 11:10:55;;;;;;;;;4.00;4.00;;;;;36.28;24.81;101215.16;4934579;28;45459;-69
2021/09/13 11:13:20;;;;;;;;;3.75;3.75;;;;;36.43;25.12;101225.78;4932407;28;56689;-69
2021/09/13 11:15:52;;;;;;;;;3.75;3.75;;;;;36.55;24.15;101215.03;4932428;28;45811;-71
2021/09/13 11:18:37;;;;;;;;;3.25;3.00;;;;;35.91;24.85;101214.31;4928118;28;46152;-70
2021/09/13 11:21:13;;;;;;;;;4.00;3.50;;;;;35.87;25.29;101210.53;4931596;28;46057;-71
2021/09/13 11:23:39;;;;;;;;;4.75;4.25;;;;;36.33;25.81;101202.06;4926015;28;45420;-72
2021/09/13 11:26:04;;;;;;;;;4.00;4.00;;;;;36.73;25.22;101204.16;4935138;28;45597;-73
2021/09/13 11:28:29;;;;;;;;;3.50;3.50;;;;;37.01;24.83;101199.25;4928223;28;47205;-72
2021/09/13 11:30:55;;;;;;;;;4.75;4.00;;;;;37.07;24.22;101200.78;4929608;28;45535;-70